Time;durP1;ratioP1;P1;durP2;ratioP2;P2;SDS_P1;SDS_P2;PMS_P1;PMS_P2;Temp;Humidity;BMP_temperature;BMP_pressure;BME280_temperature;BME280_humidity;BME280_pressure;Samples;Min_cycle;Max_cycle;Signal;HPM_P1;HPM_P2
2024/04/30 00:01:27;;;;;;;8.38;3.20;;;22.70;99.90;;;;;;5343284;26;20009;-48
2024/04/30 00:03:52;;;;;;;4.38;3.05;;;22.70;99.90;;;;;;5341272;26;20016;-50
2024/04/30 00:06:18;;;;;;;3.85;3.05;;;22.70;99.90;;;;;;5342287;26;20082;-55
2024/04/30 00:08:44;;;;;;;5.63;3.60;;;22.70;99.90;;;;;;5320634;26;20009;-47
2024/04/30 00:11:10;;;;;;;4.50;3.15;;;22.70;99.90;;;;;;5333787;26;20071;-48
2024/04/30 00:13:36;;;;;;;7.38;3.60;;;22.70;99.90;;;;;;5342826;26;20357;-51
2024/04/30 00:16:02;;;;;;;4.72;3.08;;;22.70;99.90;;;;;;5342216;26;20004;-50
2024/04/30 00:18:29;;;;;;;4.10;3.05;;;22.70;99.90;;;;;;5343291;26;20005;-49
2024/04/30 00:20:54;;;;;;;5.18;2.85;;;22.70;99.90;;;;;;5344823;26;20082;-48
2024/04/30 00:23:20;;;;;;;6.07;3.03;;;22.70;99.90;;;;;;5345159;26;20005;-48
2024/04/30 00:25:47;;;;;;;4.63;2.78;;;22.70;99.90;;;;;;5345054;26;20541;-49
2024/04/30 00:28:13;;;;;;;5.90;3.50;;;22.70;99.90;;;;;;5345253;26;20001;-49
2024/04/30 00:30:39;;;;;;;4.32;2.63;;;22.60;99.90;;;;;;5343726;26;20460;-49
2024/04/30 00:33:05;;;;;;;4.25;2.80;;;22.70;99.90;;;;;;5344337;26;20007;-47
2024/04/30 00:35:31;;;;;;;6.05;3.72;;;22.70;99.90;;;;;;5342592;26;19997;-48
2024/04/30 00:37:57;;;;;;;5.40;3.55;;;22.70;99.90;;;;;;5343162;26;20024;-49
2024/04/30 00:40:22;;;;;;;5.53;3.03;;;22.70;99.90;;;;;;5345285;26;20012;-48
2024/04/30 00:42:48;;;;;;;6.18;3.65;;;22.60;99.90;;;;;;5344574;26;20001;-48
2024/04/30 00:45:14;;;;;;;5.50;3.03;;;22.60;99.90;;;;;;5343814;26;20071;-47
2024/04/30 00:47:40;;;;;;;5.47;3.30;;;22.60;99.90;;;;;;5314518;26;20047;-51
2024/04/30 00:50:07;;;;;;;4.43;3.00;;;22.60;99.90;;;;;;5344332;26;20000;-51
2024/04/30 00:52:33;;;;;;;5.00;2.70;;;22.60;99.90;;;;;;5344319;26;20461;-50
2024/04/30 00:54:59;;;;;;;4.07;2.92;;;22.60;99.90;;;;;;5341698;26;20456;-51
2024/04/30 00:57:26;;;;;;;5.18;3.28;;;22.60;99.90;;;;;;5342789;26;20000;-51
2024/04/30 00:59:51;;;;;;;4.68;3.17;;;22.60;99.90;;;;;;5345032;26;20000;-50
2024/04/30 01:02:18;;;;;;;3.88;2.65;;;22.60;99.90;;;;;;5345789;26;19997;-50
2024/04/30 01:04:44;;;;;;;30.20;7.35;;;22.60;99.90;;;;;;5345240;26;20011;-51
2024/04/30 01:07:09;;;;;;;28.90;7.10;;;22.60;99.90;;;;;;5345243;26;20000;-50
2024/04/30 01:09:35;;;;;;;33.28;7.40;;;22.50;99.90;;;;;;5345002;26;20000;-50
2024/04/30 01:12:01;;;;;;;28.75;6.93;;;22.50;99.90;;;;;;5345472;26;20008;-51
2024/04/30 01:14:27;;;;;;;29.02;6.45;;;22.50;99.90;;;;;;5345146;26;20436;-51
2024/04/30 01:16:53;;;;;;;21.10;6.10;;;22.50;99.90;;;;;;5343800;26;19997;-51
2024/04/30 01:19:18;;;;;;;27.90;6.38;;;22.60;99.90;;;;;;5345443;26;19997;-50
2024/04/30 01:21:44;;;;;;;22.02;5.43;;;22.50;99.90;;;;;;5345527;26;20454;-50
2024/04/30 01:24:10;;;;;;;19.38;5.53;;;22.60;99.90;;;;;;5344515;26;20047;-50
2024/04/30 01:26:35;;;;;;;16.15;5.78;;;22.50;99.90;;;;;;5345855;26;19993;-50
2024/04/30 01:29:02;;;;;;;22.67;6.57;;;22.50;99.90;;;;;;5345496;26;20578;-49
2024/04/30 01:31:28;;;;;;;14.70;5.20;;;22.50;99.90;;;;;;5344305;26;20074;-49
2024/04/30 01:33:54;;;;;;;18.30;5.47;;;22.50;99.90;;;;;;5345514;26;20008;-50
2024/04/30 01:36:20;;;;;;;12.30;5.22;;;22.50;99.90;;;;;;5344997;26;19996;-51
2024/04/30 01:38:45;;;;;;;15.95;5.38;;;22.50;99.90;;;;;;5343741;26;20008;-51
2024/04/30 01:41:11;;;;;;;22.27;5.88;;;22.50;99.90;;;;;;5344566;26;20012;-52
2024/04/30 01:43:37;;;;;;;11.23;4.78;;;22.50;99.90;;;;;;5345459;26;20099;-51
2024/04/30 01:46:04;;;;;;;14.32;4.50;;;22.40;99.90;;;;;;5344253;26;20079;-51
2024/04/30 01:48:30;;;;;;;14.50;5.10;;;22.40;99.90;;;;;;5343797;26;20008;-49
2024/04/30 01:50:56;;;;;;;12.48;4.93;;;22.40;99.90;;;;;;5342602;26;20001;-51
2024/04/30 01:53:22;;;;;;;13.45;4.50;;;22.40;99.90;;;;;;5344515;26;20075;-50
2024/04/30 01:55:47;;;;;;;20.45;4.50;;;22.40;99.90;;;;;;5343856;26;20003;-51
2024/04/30 01:58:13;;;;;;;13.25;4.88;;;22.40;99.90;;;;;;5343187;26;20008;-51
2024/04/30 02:00:39;;;;;;;13.43;4.95;;;22.40;99.90;;;;;;5353407;21;20002;-51
2024/04/30 02:03:05;;;;;;;14.68;4.60;;;22.40;99.90;;;;;;5310671;26;20010;-53
2024/04/30 02:05:30;;;;;;;15.00;4.78;;;22.40;99.90;;;;;;5310703;26;20006;-51
2024/04/30 02:07:56;;;;;;;12.52;4.88;;;22.40;99.90;;;;;;5310386;26;20356;-51
2024/04/30 02:10:22;;;;;;;11.95;4.35;;;22.40;99.90;;;;;;5310362;26;20445;-52
2024/04/30 02:12:48;;;;;;;10.25;3.78;;;22.40;99.90;;;;;;5313544;26;20412;-52
2024/04/30 02:15:13;;;;;;;9.77;4.18;;;22.30;99.90;;;;;;5313523;26;20009;-52
2024/04/30 02:17:39;;;;;;;9.38;4.10;;;22.30;99.90;;;;;;5313581;26;20002;-53
2024/04/30 02:20:05;;;;;;;9.50;4.32;;;22.30;99.90;;;;;;5313561;26;20001;-52
2024/04/30 02:22:31;;;;;;;10.13;4.28;;;22.30;99.90;;;;;;5313340;26;20347;-52
2024/04/30 02:24:57;;;;;;;12.00;4.93;;;22.30;99.90;;;;;;5313227;26;20065;-53
2024/04/30 02:27:23;;;;;;;7.93;4.05;;;22.30;99.90;;;;;;5313400;26;20018;-52
2024/04/30 02:29:48;;;;;;;11.73;3.83;;;22.30;99.90;;;;;;5313657;26;20014;-52
2024/04/30 02:34:58;;;;;;;6.97;4.05;;;22.30;99.90;;;;;;5313430;27;20048;-52
2024/04/30 02:37:24;;;;;;;11.23;4.20;;;22.30;99.90;;;;;;5313116;26;20005;-53
2024/04/30 02:39:50;;;;;;;6.07;3.28;;;22.20;99.90;;;;;;5313204;26;20001;-52
2024/04/30 02:42:15;;;;;;;8.90;3.90;;;22.20;99.90;;;;;;5313298;26;20006;-53
2024/04/30 02:44:41;;;;;;;9.77;3.80;;;22.20;99.90;;;;;;5313472;26;20287;-52
2024/04/30 02:47:07;;;;;;;8.00;4.13;;;22.20;99.90;;;;;;5313154;26;20538;-52
2024/04/30 02:49:33;;;;;;;9.23;4.20;;;22.20;99.90;;;;;;5312936;26;20006;-53
2024/04/30 02:51:58;;;;;;;5.22;3.10;;;22.20;99.90;;;;;;5311387;27;20006;-52
2024/04/30 02:54:24;;;;;;;5.95;3.60;;;22.20;99.90;;;;;;5313328;26;20464;-53
2024/04/30 02:56:50;;;;;;;8.60;3.95;;;22.20;99.90;;;;;;5312860;26;20024;-52
2024/04/30 02:59:16;;;;;;;7.57;4.03;;;22.20;99.90;;;;;;5311112;27;20013;-53
2024/04/30 03:01:43;;;;;;;7.97;4.05;;;22.20;99.90;;;;;;5344161;21;20005;-48
2024/04/30 03:04:09;;;;;;;9.65;3.95;;;22.20;99.90;;;;;;5345336;26;20187;-50
2024/04/30 03:06:38;;;;;;;8.32;3.88;;;22.10;99.90;;;;;;5347295;26;20012;-50
2024/04/30 03:09:04;;;;;;;6.63;3.67;;;22.10;99.90;;;;;;5347393;26;20079;-49
2024/04/30 03:11:29;;;;;;;7.90;3.45;;;22.10;99.90;;;;;;5347644;26;20445;-50
2024/04/30 03:13:55;;;;;;;8.63;3.58;;;22.10;99.90;;;;;;5345794;26;20001;-52
2024/04/30 03:16:21;;;;;;;7.07;4.22;;;22.10;99.90;;;;;;5347363;26;20052;-50
2024/04/30 03:18:47;;;;;;;8.20;3.25;;;22.10;99.90;;;;;;5347316;26;20344;-49
2024/04/30 03:21:13;;;;;;;5.03;3.20;;;22.10;99.90;;;;;;5347158;26;20073;-50
2024/04/30 03:23:39;;;;;;;6.47;3.30;;;22.10;99.90;;;;;;5345240;26;20436;-50
2024/04/30 03:26:05;;;;;;;5.72;3.25;;;22.10;99.90;;;;;;5347028;26;19997;-50
2024/04/30 03:28:31;;;;;;;8.27;3.00;;;22.10;99.90;;;;;;5347192;26;20462;-49
2024/04/30 03:30:58;;;;;;;6.90;3.17;;;22.10;99.90;;;;;;5347004;26;20001;-51
2024/04/30 03:33:24;;;;;;;4.50;3.20;;;22.10;99.90;;;;;;5346914;26;20051;-50
2024/04/30 03:35:50;;;;;;;6.07;2.90;;;22.00;99.90;;;;;;5347142;26;20009;-51
2024/04/30 03:38:16;;;;;;;6.70;2.88;;;22.00;99.90;;;;;;5346921;26;20008;-51
2024/04/30 03:40:41;;;;;;;5.45;3.00;;;22.00;99.90;;;;;;5346864;26;20399;-50
2024/04/30 03:43:07;;;;;;;5.60;2.83;;;22.00;99.90;;;;;;5346719;26;20005;-49
2024/04/30 03:45:33;;;;;;;5.15;3.03;;;22.00;99.90;;;;;;5347353;26;20001;-48
2024/04/30 03:47:59;;;;;;;5.80;2.83;;;22.00;99.90;;;;;;5347158;26;20005;-49
2024/04/30 03:50:25;;;;;;;4.22;3.05;;;22.00;99.90;;;;;;5346952;26;20074;-51
2024/04/30 03:52:50;;;;;;;5.72;2.72;;;22.00;99.90;;;;;;5312865;26;20012;-49
2024/04/30 03:55:16;;;;;;;6.18;3.45;;;22.00;99.90;;;;;;5309324;26;20072;-49
2024/04/30 03:57:42;;;;;;;6.80;4.38;;;22.00;99.90;;;;;;5308938;26;20038;-48
2024/04/30 04:00:08;;;;;;;5.18;3.05;;;22.00;99.90;;;;;;5308699;26;20088;-49
2024/04/30 04:02:34;;;;;;;3.60;3.13;;;21.90;99.90;;;;;;5307586;27;20029;-49
2024/04/30 04:04:59;;;;;;;5.45;2.90;;;21.90;99.90;;;;;;5307221;27;20006;-49
2024/04/30 04:07:25;;;;;;;6.80;2.92;;;21.90;99.90;;;;;;5309019;26;20006;-50
2024/04/30 04:09:51;;;;;;;6.20;2.75;;;21.90;99.90;;;;;;5310217;26;20524;-50
2024/04/30 04:15:01;;;;;;;4.50;2.63;;;21.90;99.90;;;;;;5312676;27;20016;-49
2024/04/30 04:17:26;;;;;;;3.63;2.42;;;21.90;99.90;;;;;;5311774;27;20005;-50
2024/04/30 04:19:52;;;;;;;3.80;2.20;;;21.90;99.90;;;;;;5312129;26;20001;-50
2024/04/30 04:22:18;;;;;;;4.25;2.25;;;21.90;99.90;;;;;;5311800;26;20002;-50
2024/04/30 04:24:44;;;;;;;3.95;2.70;;;21.90;99.90;;;;;;5312100;26;20006;-50
2024/04/30 04:27:10;;;;;;;4.35;2.67;;;21.90;99.90;;;;;;5312112;26;20012;-50
2024/04/30 04:29:35;;;;;;;4.95;2.30;;;21.90;99.90;;;;;;5312069;26;20006;-50
2024/04/30 04:32:01;;;;;;;4.85;2.70;;;21.90;99.90;;;;;;5312449;26;20020;-49
2024/04/30 04:34:27;;;;;;;5.50;2.60;;;21.80;99.90;;;;;;5310660;27;20048;-48
2024/04/30 04:36:53;;;;;;;4.95;2.35;;;21.80;99.90;;;;;;5311839;27;20319;-50
2024/04/30 04:39:20;;;;;;;5.90;2.65;;;21.80;99.90;;;;;;5310314;26;20438;-51
2024/04/30 04:41:46;;;;;;;4.70;2.22;;;21.80;99.90;;;;;;5311842;26;20045;-50
2024/04/30 04:44:12;;;;;;;4.97;2.58;;;21.80;99.90;;;;;;5338842;26;20076;-50
2024/04/30 04:46:37;;;;;;;4.38;2.63;;;21.80;99.90;;;;;;5311841;26;20015;-50
2024/04/30 04:49:04;;;;;;;3.78;2.50;;;21.80;99.90;;;;;;5311703;27;20076;-50
2024/04/30 04:51:32;;;;;;;3.65;2.35;;;21.80;99.90;;;;;;5311900;26;20013;-50
2024/04/30 04:53:58;;;;;;;6.30;2.70;;;21.80;99.90;;;;;;5311612;26;20016;-50
2024/04/30 04:56:24;;;;;;;4.07;2.45;;;21.80;99.90;;;;;;5311709;26;20017;-54
2024/04/30 04:58:50;;;;;;;3.88;2.08;;;21.80;99.90;;;;;;5311810;26;20369;-50
2024/04/30 05:01:19;;;;;;;3.63;2.15;;;21.80;99.90;;;;;;5311654;26;20065;-50
2024/04/30 05:03:48;;;;;;;4.15;2.28;;;21.80;99.90;;;;;;5311624;26;20010;-51
2024/04/30 05:06:14;;;;;;;5.78;2.40;;;21.80;99.90;;;;;;5311315;27;20002;-51
2024/04/30 05:08:42;;;;;;;3.30;2.10;;;21.80;99.90;;;;;;5311151;26;20487;-50
2024/04/30 05:11:15;;;;;;;3.75;2.30;;;21.80;99.90;;;;;;5311438;26;20453;-50
2024/04/30 05:13:41;;;;;;;4.10;1.98;;;21.80;99.90;;;;;;5309518;26;20010;-51
2024/04/30 05:16:10;;;;;;;3.10;2.25;;;21.70;99.90;;;;;;5309923;27;20056;-50
2024/04/30 05:18:36;;;;;;;3.78;2.22;;;21.70;99.90;;;;;;5311445;26;20045;-50
2024/04/30 05:21:03;;;;;;;3.88;1.80;;;21.70;99.90;;;;;;5311433;26;20080;-50
2024/04/30 05:23:29;;;;;;;3.30;2.25;;;21.70;99.90;;;;;;5309454;27;20058;-49
2024/04/30 05:25:54;;;;;;;2.97;1.88;;;21.70;99.90;;;;;;5311188;26;20001;-49
2024/04/30 05:28:20;;;;;;;3.35;2.13;;;21.70;99.90;;;;;;5311106;27;20325;-49
2024/04/30 05:30:46;;;;;;;4.00;2.00;;;21.70;99.90;;;;;;5337908;26;20338;-50
2024/04/30 05:33:12;;;;;;;3.95;1.95;;;21.70;99.90;;;;;;5311168;26;20013;-50
2024/04/30 05:35:38;;;;;;;5.43;2.17;;;21.70;99.90;;;;;;5311449;26;20006;-50
2024/04/30 05:38:04;;;;;;;3.78;2.08;;;21.70;99.90;;;;;;5311489;26;20016;-48
2024/04/30 05:40:29;;;;;;;3.60;1.90;;;21.70;99.90;;;;;;5309246;27;20005;-50
2024/04/30 05:42:55;;;;;;;4.88;2.60;;;21.70;99.90;;;;;;5310968;26;20080;-51
2024/04/30 05:45:21;;;;;;;4.35;2.28;;;21.70;99.90;;;;;;5310967;26;20014;-48
2024/04/30 05:47:47;;;;;;;2.72;2.00;;;21.70;99.90;;;;;;5310838;27;20533;-49
2024/04/30 05:50:13;;;;;;;3.95;2.10;;;21.70;99.90;;;;;;5310900;26;20002;-49
2024/04/30 05:52:39;;;;;;;4.85;1.88;;;21.70;99.90;;;;;;5311104;26;20045;-49
2024/04/30 05:55:05;;;;;;;4.15;2.92;;;21.70;99.90;;;;;;5308725;26;20002;-49
2024/04/30 05:57:30;;;;;;;3.53;2.15;;;21.70;99.90;;;;;;5323635;26;20009;-48
2024/04/30 05:59:56;;;;;;;3.28;2.42;;;21.70;99.90;;;;;;5314833;26;20004;-50
2024/04/30 06:02:22;;;;;;;3.85;2.30;;;21.70;99.90;;;;;;5344816;26;20460;-48
2024/04/30 06:04:48;;;;;;;4.70;2.78;;;21.70;99.90;;;;;;5345051;26;20020;-50
2024/04/30 06:07:13;;;;;;;5.85;2.08;;;21.70;99.90;;;;;;5342702;26;20020;-48
2024/04/30 06:09:39;;;;;;;5.07;2.47;;;21.60;99.90;;;;;;5345364;26;20009;-50
2024/04/30 06:12:05;;;;;;;3.70;1.92;;;21.60;99.90;;;;;;5344909;26;20473;-49
2024/04/30 06:14:31;;;;;;;2.78;2.10;;;21.60;99.90;;;;;;5345051;26;20442;-48
2024/04/30 06:16:57;;;;;;;3.75;2.05;;;21.60;99.90;;;;;;5344596;26;20020;-49
2024/04/30 06:19:22;;;;;;;2.80;1.92;;;21.60;99.90;;;;;;5343525;26;20004;-49
2024/04/30 06:21:48;;;;;;;3.58;2.20;;;21.60;99.90;;;;;;5344934;26;20005;-49
2024/04/30 06:24:14;;;;;;;2.83;2.25;;;21.60;99.90;;;;;;5344255;26;20092;-49
2024/04/30 06:26:44;;;;;;;2.78;2.33;;;21.60;99.90;;;;;;5344398;26;20023;-50
2024/04/30 06:29:09;;;;;;;3.58;2.28;;;21.60;99.90;;;;;;5344739;26;20056;-51
2024/04/30 06:31:35;;;;;;;2.78;2.00;;;21.60;99.90;;;;;;5342639;26;20070;-47
2024/04/30 06:34:01;;;;;;;4.00;1.80;;;21.60;99.90;;;;;;5342568;26;20005;-49
2024/04/30 06:36:27;;;;;;;3.58;2.40;;;21.60;99.90;;;;;;5344481;26;20016;-47
2024/04/30 06:38:53;;;;;;;9.35;2.78;;;21.60;99.90;;;;;;5344367;26;20001;-48
2024/04/30 06:41:18;;;;;;;2.72;2.08;;;21.60;99.90;;;;;;5344691;26;20422;-49
2024/04/30 06:43:44;;;;;;;3.80;1.95;;;21.60;99.90;;;;;;5344440;26;20074;-48
2024/04/30 06:46:10;;;;;;;4.75;1.92;;;21.60;99.90;;;;;;5344367;26;20009;-48
2024/04/30 06:48:36;;;;;;;3.83;2.15;;;21.60;99.90;;;;;;5344552;26;20020;-48
2024/04/30 06:51:02;;;;;;;4.68;1.92;;;21.60;99.90;;;;;;5344293;26;20009;-49
2024/04/30 06:53:28;;;;;;;6.13;2.42;;;21.60;99.90;;;;;;5344051;26;20441;-48
2024/04/30 06:55:53;;;;;;;3.42;2.17;;;21.60;99.90;;;;;;5343743;26;20341;-48
2024/04/30 06:58:19;;;;;;;3.22;1.92;;;21.60;99.90;;;;;;5345405;26;20094;-49
2024/04/30 07:00:45;;;;;;;3.03;2.20;;;21.70;99.90;;;;;;5346730;26;20366;-48
2024/04/30 07:03:11;;;;;;;3.42;2.30;;;21.60;99.90;;;;;;5347749;26;20082;-47
2024/04/30 07:05:37;;;;;;;3.38;1.70;;;21.60;99.90;;;;;;5345984;26;20452;-49
2024/04/30 07:08:06;;;;;;;3.58;2.20;;;21.60;99.90;;;;;;5347270;26;20456;-47
2024/04/30 07:10:32;;;;;;;4.28;2.20;;;21.60;99.90;;;;;;5347220;26;20008;-49
2024/04/30 07:13:02;;;;;;;2.83;2.08;;;21.60;99.90;;;;;;5347480;26;20001;-49
2024/04/30 07:15:27;;;;;;;7.53;2.85;;;21.60;99.90;;;;;;5347461;26;20005;-50
2024/04/30 07:17:55;;;;;;;3.33;1.98;;;21.60;99.90;;;;;;5345528;26;20074;-50
2024/04/30 07:20:21;;;;;;;3.13;1.83;;;21.60;99.90;;;;;;5345598;26;20005;-49
2024/04/30 07:22:47;;;;;;;2.50;1.75;;;21.60;99.90;;;;;;5347389;26;20082;-49
2024/04/30 07:25:12;;;;;;;4.03;2.30;;;21.60;99.90;;;;;;5347394;26;20351;-50
2024/04/30 07:27:39;;;;;;;4.47;1.85;;;21.60;99.90;;;;;;5347500;26;20029;-48
2024/04/30 07:30:05;;;;;;;4.53;2.10;;;21.60;99.90;;;;;;5346852;26;20319;-49
2024/04/30 07:32:31;;;;;;;2.78;1.90;;;21.70;99.90;;;;;;5347176;26;20456;-48
2024/04/30 07:34:57;;;;;;;5.20;2.65;;;21.60;99.90;;;;;;5345044;26;20005;-47
2024/04/30 07:37:23;;;;;;;4.05;2.17;;;21.60;99.90;;;;;;5345183;26;20444;-49
2024/04/30 07:39:49;;;;;;;4.05;2.00;;;21.60;99.90;;;;;;5345430;26;20004;-49
2024/04/30 07:42:15;;;;;;;3.75;2.47;;;21.60;99.90;;;;;;5347329;26;20075;-49
2024/04/30 07:44:41;;;;;;;3.35;2.22;;;21.60;99.90;;;;;;5345365;26;20384;-48
2024/04/30 07:47:06;;;;;;;4.50;3.10;;;21.70;99.90;;;;;;5346929;26;20015;-49
2024/04/30 07:49:32;;;;;;;2.45;1.88;;;21.70;99.90;;;;;;5344295;26;20455;-49
2024/04/30 07:51:58;;;;;;;4.38;2.53;;;21.70;99.90;;;;;;5346479;26;20005;-49
2024/04/30 07:54:24;;;;;;;3.30;2.20;;;21.70;99.90;;;;;;5346779;26;20022;-49
2024/04/30 07:56:49;;;;;;;3.63;2.03;;;21.70;99.90;;;;;;5346705;26;20009;-50
2024/04/30 07:59:15;;;;;;;4.13;2.35;;;21.70;99.90;;;;;;5346941;26;20019;-50
2024/04/30 08:01:41;;;;;;;6.18;2.58;;;21.70;99.90;;;;;;5346633;26;20104;-49
2024/04/30 08:04:07;;;;;;;4.18;2.42;;;21.60;99.90;;;;;;5344593;26;20087;-49
2024/04/30 08:06:33;;;;;;;3.25;2.33;;;21.70;99.90;;;;;;5344312;26;20001;-49
2024/04/30 08:08:58;;;;;;;3.60;2.20;;;21.70;99.90;;;;;;5345101;26;20488;-49
2024/04/30 08:11:24;;;;;;;5.63;2.20;;;21.70;99.90;;;;;;5322745;26;20016;-49
2024/04/30 08:13:50;;;;;;;4.57;2.70;;;21.70;99.90;;;;;;5329982;26;20008;-50
2024/04/30 08:16:16;;;;;;;5.25;2.28;;;21.70;99.90;;;;;;5329306;26;20009;-50
2024/04/30 08:18:42;;;;;;;5.38;2.30;;;21.70;99.90;;;;;;5323408;26;20008;-49
2024/04/30 08:21:07;;;;;;;3.75;2.40;;;21.70;99.90;;;;;;5312824;26;20011;-49
2024/04/30 08:23:33;;;;;;;4.60;2.75;;;21.70;99.90;;;;;;5341200;26;20330;-49
2024/04/30 08:25:59;;;;;;;5.90;2.40;;;21.70;99.90;;;;;;5345648;26;20004;-49
2024/04/30 08:28:25;;;;;;;5.78;2.42;;;21.70;99.90;;;;;;5342587;26;20008;-49
2024/04/30 08:30:51;;;;;;;4.75;2.50;;;21.70;99.90;;;;;;5342861;26;20070;-49
2024/04/30 08:33:17;;;;;;;3.25;2.40;;;21.70;99.90;;;;;;5342459;26;20012;-48
2024/04/30 08:35:43;;;;;;;4.40;2.58;;;21.70;99.90;;;;;;5342443;26;20763;-48
2024/04/30 08:38:11;;;;;;;4.15;2.60;;;21.70;99.90;;;;;;5340681;26;19996;-50
2024/04/30 08:40:37;;;;;;;;;;;21.70;99.90;;;;;;5343134;26;19996;-49
2024/04/30 08:43:03;;;;;;;3.70;2.40;;;21.70;99.90;;;;;;5314162;26;19933;-48
2024/04/30 08:45:30;;;;;;;3.55;2.55;;;21.70;99.90;;;;;;5345747;26;19997;-48
2024/04/30 08:47:58;;;;;;;3.77;2.73;;;21.70;99.90;;;;;;5345312;26;20008;-48
2024/04/30 08:50:26;;;;;;;4.22;2.95;;;21.70;99.90;;;;;;5344025;26;19996;-49
2024/04/30 08:52:54;;;;;;;4.53;2.90;;;21.70;99.90;;;;;;5345456;26;20100;-50
2024/04/30 08:55:21;;;;;;;3.53;2.60;;;21.70;99.90;;;;;;5339276;26;20000;-49
2024/04/30 08:57:46;;;;;;;7.82;3.75;;;21.70;99.90;;;;;;5314617;26;20052;-49
2024/04/30 09:00:12;;;;;;;4.70;3.05;;;21.70;99.90;;;;;;5319437;26;20005;-49
2024/04/30 09:02:40;;;;;;;5.15;3.20;;;21.60;99.90;;;;;;5345873;26;20392;-49
2024/04/30 09:05:06;;;;;;;6.75;3.58;;;21.70;99.90;;;;;;5343902;26;19997;-49
2024/04/30 09:07:33;;;;;;;6.75;3.30;;;21.70;99.90;;;;;;5345386;26;20440;-48
2024/04/30 09:10:00;;;;;;;4.63;2.60;;;21.70;99.90;;;;;;5327463;26;20009;-47
2024/04/30 09:12:26;;;;;;;5.70;2.95;;;21.70;99.90;;;;;;5329923;26;20441;-47
2024/04/30 09:14:52;;;;;;;8.35;3.65;;;21.70;99.90;;;;;;5325897;26;20008;-47
2024/04/30 09:17:25;;;;;;;6.60;3.50;;;21.70;99.90;;;;;;5327230;26;19997;-47
2024/04/30 09:20:01;;;;;;;3.78;2.78;;;21.70;99.90;;;;;;5327370;26;20001;-48
2024/04/30 09:22:27;;;;;;;6.68;2.95;;;21.70;99.90;;;;;;5329727;26;20015;-47
2024/04/30 09:24:52;;;;;;;7.68;2.90;;;21.70;99.90;;;;;;5327382;26;20346;-48
2024/04/30 09:27:18;;;;;;;9.13;2.85;;;21.70;99.90;;;;;;5327495;26;20015;-48
2024/04/30 09:29:44;;;;;;;5.70;2.45;;;21.70;99.90;;;;;;5329549;26;20001;-48
2024/04/30 09:32:20;;;;;;;3.90;2.72;;;21.70;99.90;;;;;;5326637;26;20333;-49
2024/04/30 09:34:46;;;;;;;6.07;2.60;;;21.70;99.90;;;;;;5325659;26;20523;-48
2024/04/30 09:37:19;;;;;;;4.72;2.60;;;21.70;99.90;;;;;;5340332;26;20004;-50
2024/04/30 09:39:48;;;;;;;10.07;2.65;;;21.70;99.90;;;;;;5345297;26;20435;-49
2024/04/30 09:42:16;;;;;;;6.78;2.50;;;21.80;99.90;;;;;;5341763;26;20001;-47
2024/04/30 09:44:42;;;;;;;9.15;3.08;;;21.80;99.90;;;;;;5331648;26;20002;-48
2024/04/30 09:47:09;;;;;;;6.53;2.40;;;21.80;99.90;;;;;;5333256;26;20058;-50
2024/04/30 09:49:36;;;;;;;8.75;3.70;;;21.80;99.90;;;;;;5317977;26;20442;-50
2024/04/30 09:52:03;;;;;;;7.40;2.60;;;21.80;99.90;;;;;;5308057;26;20012;-49
2024/04/30 09:54:30;;;;;;;8.25;2.33;;;21.80;99.90;;;;;;5314135;26;20012;-50
2024/04/30 09:57:00;;;;;;;6.15;2.65;;;21.80;99.90;;;;;;5330459;26;20002;-50
2024/04/30 09:59:26;;;;;;;6.25;2.40;;;21.80;99.90;;;;;;5342013;26;20082;-51
2024/04/30 10:01:54;;;;;;;5.57;2.25;;;21.80;99.90;;;;;;5344158;26;20009;-51
2024/04/30 10:04:21;;;;;;;5.45;2.30;;;21.80;99.90;;;;;;5344214;26;20015;-50
2024/04/30 10:06:48;;;;;;;6.07;2.00;;;21.80;99.90;;;;;;5318117;26;20453;-49
2024/04/30 10:09:14;;;;;;;4.30;2.00;;;21.80;99.90;;;;;;5310724;26;20006;-50
2024/04/30 10:11:48;;;;;;;5.97;2.35;;;21.80;99.90;;;;;;5310926;26;20446;-49
2024/04/30 10:14:14;;;;;;;5.50;2.40;;;21.80;99.90;;;;;;5311085;26;20457;-49
2024/04/30 10:16:42;;;;;;;5.90;2.70;;;21.80;99.90;;;;;;5310890;26;20009;-49
2024/04/30 10:19:08;;;;;;;8.63;2.65;;;21.80;99.90;;;;;;5311081;26;19997;-49
2024/04/30 10:21:35;;;;;;;13.63;3.42;;;21.80;99.90;;;;;;5310711;27;20157;-49
2024/04/30 10:24:21;;;;;;;6.38;3.10;;;21.80;99.90;;;;;;5310770;26;19997;-49
2024/04/30 10:26:51;;;;;;;6.75;3.58;;;21.80;99.90;;;;;;5309037;27;20075;-49
2024/04/30 10:29:17;;;;;;;13.82;2.65;;;21.80;99.90;;;;;;5310677;26;20002;-50
2024/04/30 10:31:45;;;;;;;7.57;3.00;;;21.80;99.90;;;;;;5311342;26;20033;-49
2024/04/30 10:34:12;;;;;;;5.38;2.75;;;21.80;99.90;;;;;;5313767;26;20002;-49
2024/04/30 10:36:38;;;;;;;8.83;3.00;;;21.80;99.90;;;;;;5313649;26;20068;-49
2024/04/30 10:39:05;;;;;;;6.53;2.80;;;21.90;99.90;;;;;;5313658;26;20071;-50
2024/04/30 10:41:31;;;;;;;16.33;3.28;;;21.90;99.90;;;;;;5313450;26;20029;-49
2024/04/30 10:44:03;;;;;;;10.85;2.80;;;21.90;99.90;;;;;;5313495;26;20001;-49
2024/04/30 10:46:29;;;;;;;5.63;3.83;;;21.90;99.90;;;;;;5313355;26;20005;-49
2024/04/30 10:48:56;;;;;;;10.38;3.35;;;21.90;99.90;;;;;;5313379;26;20009;-49
2024/04/30 10:51:23;;;;;;;6.22;3.15;;;21.90;99.90;;;;;;5311756;27;19997;-49
2024/04/30 10:53:51;;;;;;;7.00;3.50;;;21.90;99.90;;;;;;5313525;26;20013;-49
2024/04/30 10:56:17;;;;;;;7.82;3.65;;;21.90;99.90;;;;;;5312824;26;20474;-48
2024/04/30 10:58:57;;;;;;;9.07;3.13;;;21.90;99.90;;;;;;5311460;27;20422;-49
2024/04/30 11:01:31;;;;;;;6.65;2.80;;;21.90;99.90;;;;;;5313618;26;20012;-48
2024/04/30 11:04:11;;;;;;;8.02;2.45;;;22.00;99.90;;;;;;5313108;26;19998;-48
2024/04/30 11:06:41;;;;;;;6.32;2.75;;;21.90;99.90;;;;;;5312947;26;20414;-48
2024/04/30 11:09:08;;;;;;;8.25;3.30;;;21.90;99.90;;;;;;5313146;26;20445;-48
2024/04/30 11:14:17;;;;;;;6.07;3.00;;;22.00;99.90;;;;;;5313120;26;20334;-49
2024/04/30 11:16:44;;;;;;;7.00;2.63;;;22.00;99.90;;;;;;5311163;27;20029;-49
2024/04/30 11:19:10;;;;;;;5.07;2.50;;;22.00;99.90;;;;;;5313079;26;20075;-49
2024/04/30 11:21:36;;;;;;;6.18;3.13;;;22.00;99.90;;;;;;5312782;27;19998;-49
2024/04/30 11:24:02;;;;;;;8.63;2.90;;;22.00;99.90;;;;;;5313055;26;20012;-49
2024/04/30 11:26:28;;;;;;;6.18;1.98;;;22.00;99.90;;;;;;5333916;26;20000;-49
2024/04/30 11:28:54;;;;;;;10.75;3.13;;;22.00;99.90;;;;;;5318078;26;20017;-49
2024/04/30 11:31:22;;;;;;;5.75;3.13;;;22.00;99.90;;;;;;5327697;26;20013;-49
2024/04/30 11:33:49;;;;;;;6.53;2.70;;;22.00;99.90;;;;;;5345945;26;20013;-49
2024/04/30 11:36:15;;;;;;;7.95;2.42;;;22.00;99.90;;;;;;5346620;26;20032;-48
2024/04/30 11:38:42;;;;;;;6.45;2.60;;;22.00;99.90;;;;;;5346736;26;20004;-48
2024/04/30 11:41:08;;;;;;;6.25;2.47;;;22.00;99.90;;;;;;5339059;26;20005;-49
2024/04/30 11:43:34;;;;;;;4.88;2.80;;;22.10;99.90;;;;;;5346165;26;20032;-48
2024/04/30 11:46:00;;;;;;;8.52;3.00;;;22.10;99.90;;;;;;5310483;26;20006;-48
2024/04/30 11:48:26;;;;;;;8.73;3.22;;;22.10;99.90;;;;;;5344697;26;20005;-48
2024/04/30 11:50:51;;;;;;;7.63;3.50;;;22.10;99.90;;;;;;5344640;26;20001;-46
2024/04/30 11:53:20;;;;;;;6.72;2.35;;;22.10;99.90;;;;;;5344715;26;20005;-50
2024/04/30 11:55:46;;;;;;;10.20;3.05;;;22.10;99.90;;;;;;5345381;26;20075;-49
2024/04/30 11:58:12;;;;;;;6.68;1.83;;;22.10;99.90;;;;;;5343418;26;20000;-49
2024/04/30 12:00:38;;;;;;;4.53;1.35;;;22.10;99.90;;;;;;5343199;26;20011;-50
2024/04/30 12:03:04;;;;;;;5.03;1.35;;;22.10;99.90;;;;;;5343409;26;20011;-48
2024/04/30 12:05:29;;;;;;;6.20;1.20;;;22.20;99.90;;;;;;5343250;26;19993;-47
2024/04/30 12:07:55;;;;;;;4.97;1.85;;;22.10;99.90;;;;;;5343529;26;20012;-49
2024/04/30 12:10:21;;;;;;;8.73;1.40;;;22.10;99.90;;;;;;5342631;26;20012;-49
2024/04/30 12:12:47;;;;;;;5.47;1.52;;;22.10;99.90;;;;;;5345455;26;20023;-49
2024/04/30 12:15:13;;;;;;;8.93;1.50;;;22.10;99.90;;;;;;5346781;26;20015;-49
2024/04/30 12:17:39;;;;;;;7.13;1.60;;;22.20;99.90;;;;;;5346156;26;20028;-49
2024/04/30 12:20:06;;;;;;;5.45;1.20;;;22.10;99.90;;;;;;5346772;26;20119;-48
2024/04/30 12:22:32;;;;;;;4.75;1.23;;;22.20;99.90;;;;;;5343980;26;20007;-48
2024/04/30 12:24:58;;;;;;;7.38;1.52;;;22.20;99.90;;;;;;5343470;26;20016;-48
2024/04/30 12:27:24;;;;;;;2.20;1.42;;;22.20;99.90;;;;;;5345073;26;20368;-47
2024/04/30 12:29:50;;;;;;;7.80;1.83;;;22.20;99.90;;;;;;5345673;26;20005;-50
2024/04/30 12:32:19;;;;;;;4.57;1.55;;;22.20;99.90;;;;;;5345330;26;20009;-50
2024/04/30 12:34:44;;;;;;;9.80;1.45;;;22.20;99.90;;;;;;5345763;26;20020;-50
2024/04/30 12:37:11;;;;;;;7.65;2.20;;;22.20;99.90;;;;;;5343224;26;20040;-50
2024/04/30 12:39:37;;;;;;;5.90;1.63;;;22.30;99.90;;;;;;5345657;26;20467;-49
2024/04/30 12:42:03;;;;;;;5.32;1.52;;;22.30;99.90;;;;;;5322823;26;20019;-50
2024/04/30 12:44:29;;;;;;;3.97;1.80;;;22.30;99.90;;;;;;5309656;27;20345;-50
2024/04/30 12:46:55;;;;;;;5.10;1.65;;;22.30;99.90;;;;;;5311759;26;20006;-53
2024/04/30 12:49:21;;;;;;;3.83;1.50;;;22.30;99.90;;;;;;5311448;27;20042;-50